Saint-Jean-Port-Joli, Canada
Current Conditions -  °F | °C
As of 2:00 PM on Sunday 21 Dec 2014 (Local Time) from CYQB Reporting Station
Light Snow Light Snow  
Wind Chill: 11°   Ceiling: 1800
Heat Index: 18°   Visibility: 1.5mi
Dew Point: 12°   Wind: 5mph
Humidity: 79%   Direction: 20°NNE
Pressure: 30.37"   Gusts: NA
Location:  47.2°N, 70.27°W
Report Text: CYQB 211900Z 02004KT 1 1/2SM -SN OVC018 M08/M11 A3037 RMK SC8 SLP289
Loading
Personal Weather Stations






























Interactive Weather Map New forecast layout! Learn more

10-Day Weather Forecast

Advertisements
Track Severe Weather on mobile